Time;durP1;ratioP1;P1;durP2;ratioP2;P2;SDS_P1;SDS_P2;PMS_P1;PMS_P2;Temp;Humidity;BMP_temperature;BMP_pressure;BME280_temperature;BME280_humidity;BME280_pressure;Samples;Min_cycle;Max_cycle;Signal;HPM_P1;HPM_P2
2022/11/22 00:00:52;;;;;;;30.30;21.65;;;;;;;1.85;100.00;99126.36;2907167;81;21560;-62
2022/11/22 00:04:55;;;;;;;36.05;21.65;;;;;;;1.74;100.00;99122.75;2841431;82;20988;-62
2022/11/22 00:08:56;;;;;;;33.08;21.23;;;;;;;1.71;100.00;99109.35;2924312;81;21049;-63
2022/11/22 00:12:57;;;;;;;36.80;23.52;;;;;;;1.63;100.00;99103.77;2874509;82;21039;-61
2022/11/22 00:17:00;;;;;;;37.42;21.40;;;;;;;1.73;100.00;99097.47;2907348;80;21040;-62
2022/11/22 00:21:12;;;;;;;45.28;23.38;;;;;;;1.69;100.00;99088.49;2987820;78;21043;-62
2022/11/22 00:25:15;;;;;;;43.13;28.25;;;;;;;1.69;100.00;99071.45;2994111;79;21329;-62
2022/11/22 00:29:16;;;;;;;42.65;25.55;;;;;;;1.73;100.00;99064.20;2927193;80;20969;-62
2022/11/22 00:33:18;;;;;;;46.37;25.43;;;;;;;1.81;100.00;99055.84;2994307;79;21027;-62
2022/11/22 00:37:19;;;;;;;39.40;23.73;;;;;;;1.88;100.00;99066.78;2881246;78;20917;-63
2022/11/22 00:41:20;;;;;;;38.15;23.65;;;;;;;1.82;100.00;99056.22;2973258;78;21018;-63
2022/11/22 00:45:22;;;;;;;39.33;26.02;;;;;;;1.84;100.00;99055.19;2982784;79;20934;-62
2022/11/22 00:49:25;;;;;;;35.55;22.20;;;;;;;1.79;100.00;99063.83;2962808;78;21016;-62
2022/11/22 00:53:30;;;;;;;43.63;24.63;;;;;;;1.60;100.00;99054.99;2993950;78;20948;-62
2022/11/22 00:57:38;;;;;;;49.98;25.95;;;;;;;1.58;100.00;99058.19;2972569;79;21004;-62
2022/11/22 01:01:39;;;;;;;42.70;27.93;;;;;;;1.63;100.00;99060.52;2980980;79;20952;-62
2022/11/22 01:05:49;;;;;;;34.00;23.15;;;;;;;1.69;100.00;99057.48;2966719;79;21019;-61
2022/11/22 01:09:50;;;;;;;34.38;20.92;;;;;;;1.62;100.00;99044.42;2955276;79;21035;-62
2022/11/22 01:13:52;;;;;;;35.55;20.65;;;;;;;1.75;100.00;99041.34;2988307;79;21021;-62
2022/11/22 01:17:53;;;;;;;38.95;23.90;;;;;;;1.83;100.00;99041.70;2997932;79;20945;-62
2022/11/22 01:21:58;;;;;;;44.20;22.13;;;;;;;1.91;100.00;99037.73;2996677;79;20959;-62
2022/11/22 01:25:59;;;;;;;40.52;23.75;;;;;;;1.97;100.00;99035.55;3017377;78;20972;-63
2022/11/22 01:30:01;;;;;;;38.13;24.35;;;;;;;1.99;100.00;99038.91;3012755;77;21034;-62
2022/11/22 01:34:05;;;;;;;42.03;23.80;;;;;;;1.95;100.00;99048.37;2970626;79;20996;-62
2022/11/22 01:38:08;;;;;;;48.00;27.75;;;;;;;1.90;100.00;99043.92;2952325;79;21011;-62
2022/11/22 01:42:11;;;;;;;40.55;25.05;;;;;;;1.92;100.00;99038.09;2965754;79;21039;-61
2022/11/22 01:46:39;;;;;;;45.63;28.12;;;;;;;1.93;100.00;99039.78;3000122;78;20980;-63
2022/11/22 01:50:43;;;;;;;44.38;27.93;;;;;;;2.00;100.00;99027.95;2984285;79;21035;-62
2022/11/22 01:54:54;;;;;;;43.13;25.55;;;;;;;2.00;100.00;99026.16;2973161;79;21016;-62
2022/11/22 01:59:00;;;;;;;48.75;27.55;;;;;;;2.02;100.00;99028.69;2986383;78;21254;-62
2022/11/22 02:03:06;;;;;;;48.48;27.50;;;;;;;2.09;100.00;99025.19;2964687;79;21023;-62
2022/11/22 02:07:17;;;;;;;42.23;28.02;;;;;;;2.05;100.00;98994.37;2998451;79;21174;-64
2022/11/22 02:11:21;;;;;;;46.83;28.80;;;;;;;2.16;100.00;99013.79;2981342;79;20995;-63
2022/11/22 02:15:23;;;;;;;52.40;29.67;;;;;;;2.17;100.00;99012.39;2945359;80;20993;-62
2022/11/22 02:19:43;;;;;;;43.35;28.17;;;;;;;2.17;100.00;99012.88;2953884;80;20952;-62
2022/11/22 02:24:14;;;;;;;34.48;25.57;;;;;;;2.07;100.00;99006.92;3040123;77;20995;-60
2022/11/22 02:28:16;;;;;;;41.15;25.02;;;;;;;1.99;100.00;99010.54;3046729;77;20971;-60
2022/11/22 02:32:18;;;;;;;36.20;22.45;;;;;;;2.01;100.00;99012.58;3008718;77;21046;-60
2022/11/22 02:36:19;;;;;;;33.83;23.20;;;;;;;2.03;100.00;98999.34;2988444;79;21026;-62
2022/11/22 02:40:21;;;;;;;45.92;25.00;;;;;;;1.89;100.00;98995.03;2933245;79;21006;-61
2022/11/22 02:44:33;;;;;;;58.75;29.35;;;;;;;1.91;100.00;98995.31;3013619;78;20955;-59
2022/11/22 02:48:40;;;;;;;46.23;27.58;;;;;;;1.88;100.00;98994.20;3001295;79;21008;-60
2022/11/22 02:52:43;;;;;;;52.20;31.75;;;;;;;1.90;100.00;98987.53;2926445;78;21009;-60
2022/11/22 02:56:45;;;;;;;52.25;29.98;;;;;;;1.81;100.00;98985.91;2955808;77;20975;-60
2022/11/22 03:00:51;;;;;;;52.33;31.07;;;;;;;1.81;100.00;98981.97;3042282;77;21030;-61
2022/11/22 03:04:52;;;;;;;42.83;25.27;;;;;;;1.81;100.00;98979.80;3012475;78;21041;-61
2022/11/22 03:08:54;;;;;;;55.48;29.18;;;;;;;1.85;100.00;98984.75;2995693;79;20975;-60
2022/11/22 03:13:07;;;;;;;48.15;30.68;;;;;;;1.82;100.00;98980.17;2951573;80;20996;-60
2022/11/22 03:17:08;;;;;;;44.55;29.75;;;;;;;1.80;100.00;98978.98;2948555;79;20991;-60
2022/11/22 03:21:09;;;;;;;45.95;28.02;;;;;;;1.87;100.00;98967.61;2953798;79;20975;-61
2022/11/22 03:25:11;;;;;;;42.90;26.62;;;;;;;1.85;100.00;98969.02;2979385;78;20984;-61
2022/11/22 03:29:12;;;;;;;45.05;25.00;;;;;;;1.80;100.00;98980.29;2971074;79;20966;-61
2022/11/22 03:33:14;;;;;;;46.77;29.32;;;;;;;1.70;100.00;98976.12;2985550;78;20972;-60
2022/11/22 03:37:16;;;;;;;48.87;27.20;;;;;;;1.70;100.00;98981.83;2932691;79;21015;-60
2022/11/22 03:41:18;;;;;;;45.38;22.62;;;;;;;1.62;100.00;98986.75;2955232;79;20987;-60
2022/11/22 03:45:19;;;;;;;60.43;34.85;;;;;;;1.59;100.00;98998.75;2997909;78;20963;-61
2022/11/22 03:49:21;;;;;;;46.13;25.50;;;;;;;1.55;100.00;98977.13;2996169;79;21007;-61
2022/11/22 03:53:27;;;;;;;56.85;28.02;;;;;;;1.49;100.00;98979.67;2962071;79;20948;-60
2022/11/22 03:57:28;;;;;;;45.25;27.85;;;;;;;1.59;100.00;98983.02;3002281;77;21031;-63
2022/11/22 04:01:29;;;;;;;40.15;25.08;;;;;;;1.54;100.00;98976.27;3021310;78;21466;-63
2022/11/22 04:05:35;;;;;;;45.88;21.60;;;;;;;1.51;100.00;98967.80;3003789;78;20976;-63
2022/11/22 04:09:36;;;;;;;48.78;23.62;;;;;;;1.40;100.00;98980.29;2994211;77;21047;-62
2022/11/22 04:18:01;;;;;;;39.27;23.32;;;;;;;1.45;100.00;98978.66;2930651;80;21002;-59
2022/11/22 04:22:02;;;;;;;45.78;26.00;;;;;;;1.34;100.00;98970.19;2897517;80;20955;-59
2022/11/22 04:26:15;;;;;;;40.48;27.85;;;;;;;1.35;100.00;98962.69;2887720;81;21549;-59
2022/11/22 04:30:16;;;;;;;34.95;17.48;;;;;;;1.38;100.00;98971.20;2891863;79;21062;-59
2022/11/22 04:34:18;;;;;;;36.63;23.85;;;;;;;1.36;100.00;98984.02;2888578;81;20990;-59
2022/11/22 04:38:19;;;;;;;34.58;20.35;;;;;;;1.38;100.00;98985.62;2890460;80;20982;-59
2022/11/22 04:46:42;;;;;;;34.55;18.55;;;;;;;1.39;100.00;98979.92;2902649;80;20979;-59
2022/11/22 04:55:10;;;;;;;;;;;;;;;1.31;100.00;98972.55;2917710;80;21003;-59
2022/11/22 04:59:11;;;;;;;38.88;21.65;;;;;;;1.25;100.00;98965.92;2945841;80;20102;-59
2022/11/22 05:03:13;;;;;;;26.45;15.05;;;;;;;1.22;100.00;98973.13;2924775;80;20947;-59
2022/11/22 05:07:29;;;;;;;37.23;22.48;;;;;;;1.22;100.00;98983.61;2921207;80;20915;-59
2022/11/22 05:11:48;;;;;;;37.08;20.95;;;;;;;1.22;100.00;98994.09;2951536;79;20979;-59
2022/11/22 05:15:50;;;;;;;40.65;24.15;;;;;;;1.15;100.00;98991.02;2926477;80;21022;-59
2022/11/22 05:20:01;;;;;;;45.45;25.32;;;;;;;1.21;100.00;98987.17;2952633;80;20998;-59
2022/11/22 05:24:02;;;;;;;55.58;30.77;;;;;;;1.24;100.00;98983.89;2951416;80;21006;-58
2022/11/22 05:28:06;;;;;;;42.93;22.75;;;;;;;1.08;100.00;98989.28;2953223;80;20940;-59
2022/11/22 05:32:07;;;;;;;45.38;25.30;;;;;;;1.05;100.00;98999.09;2940601;80;21117;-59
2022/11/22 05:36:09;;;;;;;38.90;22.60;;;;;;;1.12;100.00;99020.88;2920168;80;20975;-59
2022/11/22 05:40:12;;;;;;;35.88;15.25;;;;;;;0.98;100.00;99017.83;2942469;80;20994;-59
2022/11/22 05:44:13;;;;;;;37.45;17.92;;;;;;;0.67;100.00;99028.02;2932264;80;20959;-58
2022/11/22 05:48:15;;;;;;;34.45;17.20;;;;;;;0.62;100.00;99036.62;2946687;77;20932;-58
2022/11/22 05:52:16;;;;;;;29.25;17.32;;;;;;;0.50;100.00;99029.05;2947697;80;21278;-58
2022/11/22 05:56:21;;;;;;;26.68;13.95;;;;;;;0.65;100.00;99033.36;2952772;80;20998;-58
2022/11/22 06:00:23;;;;;;;40.28;23.32;;;;;;;0.61;100.00;99027.95;2952696;80;21042;-55
2022/11/22 06:04:28;;;;;;;37.33;18.05;;;;;;;0.75;100.00;99025.78;2937448;80;21018;-56
2022/11/22 06:08:31;;;;;;;36.75;20.27;;;;;;;0.85;100.00;99014.28;2929844;80;21025;-56
2022/11/22 06:12:50;;;;;;;36.60;20.32;;;;;;;0.92;100.00;99016.88;2956162;79;21067;-55
2022/11/22 06:16:51;;;;;;;31.82;18.98;;;;;;;0.93;100.00;99013.31;2989426;79;21034;-57
2022/11/22 06:21:00;;;;;;;36.13;20.10;;;;;;;0.93;100.00;99013.31;2945006;81;20948;-58
2022/11/22 06:25:02;;;;;;;33.40;19.48;;;;;;;0.99;100.00;99026.50;2943923;81;21149;-58
2022/11/22 06:29:03;;;;;;;27.70;19.30;;;;;;;1.06;100.00;99030.89;3025457;77;20959;-57
2022/11/22 06:33:04;;;;;;;26.80;19.40;;;;;;;0.94;100.00;99035.95;3002769;77;20922;-58
2022/11/22 06:37:06;;;;;;;35.03;20.17;;;;;;;0.96;100.00;99026.70;2969827;79;21023;-58
2022/11/22 06:41:17;;;;;;;34.90;20.25;;;;;;;1.01;100.00;99029.04;2992515;79;21505;-57
2022/11/22 06:45:18;;;;;;;45.95;22.35;;;;;;;1.06;100.00;99033.52;3016166;78;21038;-58
2022/11/22 06:49:20;;;;;;;35.50;22.40;;;;;;;1.01;100.00;99047.38;2997881;79;20952;-57
2022/11/22 06:53:21;;;;;;;37.05;20.57;;;;;;;1.03;100.00;99055.48;3024686;77;21030;-58
2022/11/22 06:57:22;;;;;;;34.80;21.37;;;;;;;1.03;100.00;99053.35;3073174;77;21030;-58
2022/11/22 07:01:28;;;;;;;33.85;21.77;;;;;;;0.99;100.00;99035.67;2982348;79;20960;-58
2022/11/22 07:05:29;;;;;;;32.20;21.52;;;;;;;1.10;100.00;99032.37;2945741;80;20971;-58
2022/11/22 07:09:30;;;;;;;42.55;23.83;;;;;;;1.08;100.00;99027.25;2967847;79;20952;-58
2022/11/22 07:13:33;;;;;;;40.67;20.88;;;;;;;1.11;100.00;99026.20;2978342;79;21011;-58
2022/11/22 07:17:34;;;;;;;35.52;22.50;;;;;;;1.17;100.00;99028.91;2953384;80;21054;-58
2022/11/22 07:21:36;;;;;;;35.58;22.90;;;;;;;1.12;100.00;99027.88;2914756;80;21028;-58
2022/11/22 07:25:37;;;;;;;37.50;21.65;;;;;;;1.11;100.00;99027.52;2941797;80;21026;-58
2022/11/22 07:29:41;;;;;;;38.30;22.87;;;;;;;1.11;100.00;99028.82;2902379;82;21046;-58
2022/11/22 07:33:43;;;;;;;35.95;20.52;;;;;;;1.13;100.00;99039.59;2913717;80;20986;-58
2022/11/22 07:37:46;;;;;;;41.75;25.82;;;;;;;1.18;100.00;99031.45;2946914;80;20963;-58
2022/11/22 07:41:53;;;;;;;32.23;19.25;;;;;;;1.18;100.00;99032.75;2934834;80;20955;-58
2022/11/22 07:46:04;;;;;;;36.55;22.05;;;;;;;1.24;100.00;99023.64;2912237;80;20947;-58
2022/11/22 07:50:08;;;;;;;37.90;19.90;;;;;;;1.21;100.00;99029.08;2909464;80;20994;-58
2022/11/22 07:54:12;;;;;;;37.88;23.47;;;;;;;1.26;100.00;99025.23;2899146;82;21007;-58
2022/11/22 07:58:13;;;;;;;44.93;28.23;;;;;;;1.24;100.00;99033.67;2913975;80;21014;-58
2022/11/22 08:02:30;;;;;;;48.17;26.12;;;;;;;1.38;100.00;99022.79;2931547;79;21000;-58
2022/11/22 08:06:31;;;;;;;34.45;23.02;;;;;;;1.45;100.00;99025.83;2869417;80;21020;-58
2022/11/22 08:10:33;;;;;;;37.93;24.07;;;;;;;1.52;100.00;99014.03;2952983;80;21021;-58
2022/11/22 08:14:44;;;;;;;47.93;24.47;;;;;;;1.55;100.00;99017.76;2933657;80;20998;-58
2022/11/22 08:18:47;;;;;;;36.23;21.02;;;;;;;1.69;100.00;99010.30;2984639;79;21023;-58
2022/11/22 08:22:49;;;;;;;40.52;22.65;;;;;;;1.79;100.00;99006.14;2990191;79;20982;-58
2022/11/22 08:26:51;;;;;;;31.55;22.17;;;;;;;1.87;100.00;99012.66;3021644;77;20967;-58
2022/11/22 08:31:14;;;;;;;36.03;21.70;;;;;;;1.83;100.00;99014.62;3018387;77;21046;-58
2022/11/22 08:35:17;;;;;;;43.63;25.50;;;;;;;1.78;100.00;99020.66;2901750;80;21625;-91
2022/11/22 08:39:18;;;;;;;34.03;22.32;;;;;;;1.73;100.00;99013.57;2899688;80;21061;-91
2022/11/22 08:43:20;;;;;;;32.90;21.65;;;;;;;1.75;100.00;99020.38;2929107;79;21042;-90
2022/11/22 08:47:21;;;;;;;39.38;24.82;;;;;;;1.76;100.00;99018.61;2919903;80;21058;-91
2022/11/22 08:51:23;;;;;;;36.80;22.75;;;;;;;1.82;100.00;99016.88;2923048;79;21070;-90
2022/11/22 08:55:24;;;;;;;45.23;26.55;;;;;;;1.90;100.00;99025.56;2903551;80;20967;-92
2022/11/22 08:59:25;;;;;;;38.60;22.00;;;;;;;1.92;100.00;99018.42;2899197;80;21550;-90
2022/11/22 09:03:27;;;;;;;50.78;26.62;;;;;;;1.96;100.00;99026.45;2917395;80;20998;-90
2022/11/22 09:07:29;;;;;;;51.37;26.87;;;;;;;2.05;100.00;99031.11;2914614;80;21043;-89
2022/11/22 09:11:30;;;;;;;43.17;25.43;;;;;;;1.99;100.00;99047.26;2937650;80;21061;-91
2022/11/22 09:15:32;;;;;;;39.15;23.57;;;;;;;1.97;100.00;99053.08;2962622;76;20990;-92
2022/11/22 09:19:33;;;;;;;46.53;25.68;;;;;;;1.94;100.00;99052.80;2933169;79;21038;-91
2022/11/22 09:23:35;;;;;;;37.03;24.15;;;;;;;2.03;100.00;99045.25;2941121;80;21046;-92
2022/11/22 09:27:37;;;;;;;38.10;26.07;;;;;;;2.09;100.00;99044.38;2946494;79;21015;-91
2022/11/22 09:31:39;;;;;;;39.40;26.85;;;;;;;2.13;100.00;99037.16;2932529;79;21011;-90
2022/11/22 09:35:40;;;;;;;42.27;22.62;;;;;;;2.12;100.00;99038.92;2952117;79;21023;-92
2022/11/22 09:39:42;;;;;;;41.90;21.77;;;;;;;1.96;100.00;99030.39;2951434;79;21514;-91
2022/11/22 09:43:58;;;;;;;37.10;21.15;;;;;;;1.92;100.00;99035.47;2887602;80;21018;-92
2022/11/22 09:48:35;;;;;;;38.93;24.17;;;;;;;1.93;100.00;99045.02;2895189;80;21023;-91
2022/11/22 09:52:45;;;;;;;44.80;26.50;;;;;;;1.84;100.00;99037.28;2889187;80;20999;-93
2022/11/22 09:56:50;;;;;;;62.40;31.02;;;;;;;1.88;100.00;99025.68;2875259;80;20990;-90
2022/11/22 10:01:12;;;;;;;41.00;25.15;;;;;;;1.89;100.00;99019.48;2847011;82;21054;-92
2022/11/22 10:05:24;;;;;;;41.58;26.73;;;;;;;2.12;100.00;99007.44;2877996;81;21046;-92
2022/11/22 10:09:52;;;;;;;50.25;28.47;;;;;;;2.33;100.00;99004.30;2880028;81;21042;-89
2022/11/22 10:13:59;;;;;;;55.10;29.02;;;;;;;2.41;100.00;98996.77;2867763;82;21390;-92
2022/11/22 10:18:23;;;;;;;40.28;24.63;;;;;;;2.59;100.00;99003.00;2845631;81;21030;-91
2022/11/22 10:22:30;;;;;;;39.35;25.32;;;;;;;2.58;100.00;98996.08;2846835;82;21952;-92
2022/11/22 10:26:33;;;;;;;40.50;25.52;;;;;;;2.70;100.00;98996.52;2865400;81;21082;-91
2022/11/22 10:30:39;;;;;;;45.58;24.85;;;;;;;2.81;100.00;98989.69;2823118;82;21084;-92
2022/11/22 10:35:10;;;;;;;47.30;27.55;;;;;;;2.96;100.00;98994.31;2836109;82;21022;-91
2022/11/22 10:39:20;;;;;;;35.13;19.85;;;;;;;3.06;100.00;98985.30;2780497;85;21182;-92
2022/11/22 10:44:00;;;;;;;40.52;25.30;;;;;;;3.04;100.00;98974.89;2818162;83;21071;-91
2022/11/22 10:48:19;;;;;;;43.50;29.92;;;;;;;3.09;100.00;98981.14;2812921;83;21049;-92
2022/11/22 10:52:48;;;;;;;42.80;22.85;;;;;;;3.20;100.00;98977.73;2889291;81;21088;-92
2022/11/22 10:57:10;;;;;;;49.50;25.72;;;;;;;3.22;100.00;98980.63;2844815;81;21088;-91
2022/11/22 11:01:34;;;;;;;49.30;28.25;;;;;;;3.28;100.00;98980.67;2876974;77;21041;-92
2022/11/22 11:05:44;;;;;;;39.10;26.30;;;;;;;3.28;100.00;98995.13;2916792;79;21062;-92
2022/11/22 11:09:59;;;;;;;66.95;44.45;;;;;;;3.18;100.00;98987.06;2935946;79;21122;-92
2022/11/22 11:14:18;;;;;;;81.95;46.13;;;;;;;3.19;100.00;98988.74;2943392;78;21576;-93
2022/11/22 11:18:57;;;;;;;86.97;49.05;;;;;;;3.21;100.00;98987.30;2946147;79;21043;-92
2022/11/22 11:23:00;;;;;;;84.28;49.13;;;;;;;3.23;100.00;98986.70;2883178;80;21033;-91
2022/11/22 11:27:01;;;;;;;66.10;40.05;;;;;;;3.22;100.00;98985.89;2918827;79;21581;-91
2022/11/22 11:31:09;;;;;;;85.28;52.78;;;;;;;3.14;100.00;98988.20;2912630;79;21018;-91
2022/11/22 11:35:13;;;;;;;60.75;38.17;;;;;;;3.17;100.00;98984.08;2892846;80;21035;-92
2022/11/22 11:39:31;;;;;;;48.87;30.10;;;;;;;3.18;100.00;98976.55;2883721;81;21058;-94
2022/11/22 11:43:38;;;;;;;42.93;30.90;;;;;;;3.23;100.00;98969.17;2852757;81;20991;-93
2022/11/22 11:47:39;;;;;;;37.75;27.45;;;;;;;3.38;100.00;98967.20;2843615;82;21096;-91
2022/11/22 11:51:45;;;;;;;44.42;27.75;;;;;;;3.42;100.00;98958.63;2868224;81;21649;-90
2022/11/22 11:55:47;;;;;;;47.70;29.30;;;;;;;3.43;100.00;98958.98;2876131;81;21825;-91
2022/11/22 11:59:51;;;;;;;41.60;25.95;;;;;;;3.55;100.00;98948.89;2860337;81;21638;-91
2022/11/22 12:04:00;;;;;;;50.35;27.58;;;;;;;3.54;100.00;98946.36;2912861;80;20988;-93
2022/11/22 12:08:04;;;;;;;45.30;27.98;;;;;;;3.60;100.00;98938.50;2858549;80;21657;-91
2022/11/22 12:12:20;;;;;;;36.68;25.80;;;;;;;3.60;100.00;98938.50;2885028;80;21055;-92
2022/11/22 12:16:36;;;;;;;50.73;27.55;;;;;;;3.71;100.00;98935.89;2874029;81;21038;-92
2022/11/22 12:20:52;;;;;;;53.15;30.32;;;;;;;3.71;100.00;98935.89;2809186;83;21050;-87
2022/11/22 12:25:02;;;;;;;43.27;28.27;;;;;;;3.71;100.00;98930.62;2853958;81;21123;-92
2022/11/22 12:29:03;;;;;;;71.45;36.03;;;;;;;3.72;100.00;98924.41;2872017;81;21062;-92
2022/11/22 12:33:10;;;;;;;58.40;29.32;;;;;;;3.71;100.00;98928.00;2862837;81;21046;-92
2022/11/22 12:37:16;;;;;;;56.37;31.77;;;;;;;3.69;100.00;98922.02;2851538;82;21531;-94
2022/11/22 12:41:22;;;;;;;71.57;32.63;;;;;;;3.76;100.00;98931.14;2876109;81;21070;-92
2022/11/22 12:45:41;;;;;;;59.00;31.60;;;;;;;3.79;100.00;98932.22;2910662;80;21030;-93
2022/11/22 12:49:53;;;;;;;55.17;33.18;;;;;;;3.79;100.00;98933.53;2907891;78;21027;-92
2022/11/22 12:54:01;;;;;;;50.03;30.68;;;;;;;3.86;100.00;98924.70;2848827;82;21026;-91
2022/11/22 12:58:38;;;;;;;57.80;30.85;;;;;;;3.90;100.00;98927.46;2878170;82;20992;-92
2022/11/22 13:02:57;;;;;;;59.13;33.10;;;;;;;3.90;100.00;98920.03;2884692;81;21028;-91
2022/11/22 13:07:25;;;;;;;52.17;32.03;;;;;;;3.89;100.00;98930.20;2883414;81;21035;-87
2022/11/22 13:11:58;;;;;;;64.55;34.58;;;;;;;3.95;100.00;98931.89;2808425;83;21132;-92
2022/11/22 13:16:03;;;;;;;72.58;35.63;;;;;;;4.00;100.00;98937.62;2753882;85;21085;-91
2022/11/22 13:20:15;;;;;;;58.57;34.33;;;;;;;3.99;100.00;98931.19;2825201;83;21596;-94
2022/11/22 13:24:53;;;;;;;66.67;36.55;;;;;;;3.88;100.00;98942.98;2793376;84;21604;-92
2022/11/22 13:28:55;;;;;;;59.30;37.80;;;;;;;3.94;100.00;98942.55;2821784;83;21063;-93
2022/11/22 13:32:59;;;;;;;60.73;36.25;;;;;;;3.94;100.00;98955.70;2747282;83;21564;-92
2022/11/22 13:37:16;;;;;;;64.60;42.65;;;;;;;3.98;100.00;98943.48;2813962;83;21046;-92
2022/11/22 13:41:28;;;;;;;66.57;35.85;;;;;;;4.05;100.00;98945.18;2789135;82;21122;-93
2022/11/22 13:45:50;;;;;;;64.67;34.92;;;;;;;4.08;100.00;98947.58;2738384;86;21743;-93
2022/11/22 13:49:52;;;;;;;69.72;34.23;;;;;;;4.06;100.00;98941.59;2858307;82;21027;-91
2022/11/22 13:54:16;;;;;;;58.95;35.58;;;;;;;4.07;100.00;98934.05;2910805;81;21003;-91
2022/11/22 13:58:29;;;;;;;65.52;36.13;;;;;;;4.10;100.00;98933.81;2875809;80;21050;-93
2022/11/22 14:02:30;;;;;;;55.60;35.38;;;;;;;4.02;100.00;98923.52;2845365;82;21066;-91
2022/11/22 14:06:33;;;;;;;59.58;37.50;;;;;;;3.96;100.00;98928.30;2864512;82;21098;-91
2022/11/22 14:10:52;;;;;;;62.78;36.20;;;;;;;3.91;100.00;98917.76;2892356;79;21074;-93
2022/11/22 14:15:15;;;;;;;70.90;36.83;;;;;;;3.91;100.00;98930.91;2848550;81;20999;-92
2022/11/22 14:19:34;;;;;;;65.78;34.98;;;;;;;3.90;100.00;98922.66;2873099;81;21033;-94
2022/11/22 14:24:31;;;;;;;64.92;37.15;;;;;;;3.89;100.00;98927.56;2841295;81;21062;-93
2022/11/22 14:29:07;;;;;;;64.80;38.50;;;;;;;3.91;100.00;98925.19;2868582;82;21005;-92
2022/11/22 14:33:22;;;;;;;80.30;36.10;;;;;;;3.93;100.00;98933.80;2771596;81;21077;-95
2022/11/22 14:37:34;;;;;;;60.83;38.08;;;;;;;3.99;100.00;98924.61;2859779;83;21018;-92
2022/11/22 14:41:43;;;;;;;58.28;35.98;;;;;;;3.96;100.00;98927.48;2877818;81;21634;-93
2022/11/22 14:46:04;;;;;;;70.10;36.95;;;;;;;3.96;100.00;98924.35;2864070;81;21228;-93
2022/11/22 14:50:26;;;;;;;57.10;30.80;;;;;;;4.01;100.00;98927.95;2849975;81;21112;-93
2022/11/22 14:54:33;;;;;;;72.82;42.27;;;;;;;3.93;100.00;98920.64;2860904;81;21120;-92
2022/11/22 14:58:58;;;;;;;63.55;37.90;;;;;;;3.90;100.00;98923.52;2866226;81;21057;-90
2022/11/22 15:03:13;;;;;;;69.45;41.33;;;;;;;4.01;100.00;98931.91;2867229;81;21113;-91
2022/11/22 15:07:46;;;;;;;54.50;36.63;;;;;;;4.05;100.00;98923.31;2871094;80;21089;-89
2022/11/22 15:12:18;;;;;;;55.20;38.45;;;;;;;4.09;100.00;98936.09;2936477;79;21534;-89
2022/11/22 15:16:26;;;;;;;59.30;37.88;;;;;;;4.16;100.00;98931.20;2921540;78;21057;-88
2022/11/22 15:20:38;;;;;;;66.05;44.50;;;;;;;4.17;100.00;98928.92;2943760;80;20984;-89
2022/11/22 15:24:41;;;;;;;74.50;40.80;;;;;;;4.18;100.00;98924.52;2896488;79;21050;-89
2022/11/22 15:28:53;;;;;;;67.85;40.78;;;;;;;4.16;100.00;98923.30;2961665;78;21019;-89
2022/11/22 15:32:59;;;;;;;75.70;42.98;;;;;;;4.12;100.00;98921.38;2934251;78;21062;-88
2022/11/22 15:37:12;;;;;;;76.53;42.13;;;;;;;4.22;100.00;98932.52;2943147;79;21050;-89
2022/11/22 15:41:21;;;;;;;74.75;41.20;;;;;;;4.24;100.00;98938.05;2918571;79;21105;-90
2022/11/22 15:45:37;;;;;;;76.05;45.30;;;;;;;4.27;100.00;98950.11;2947242;79;21078;-88
2022/11/22 15:49:43;;;;;;;75.08;39.65;;;;;;;4.30;100.00;98955.13;2940662;79;21586;-90
2022/11/22 15:54:04;;;;;;;89.52;50.45;;;;;;;4.31;100.00;98960.76;2949481;79;21077;-86
2022/11/22 15:58:12;;;;;;;89.75;52.62;;;;;;;4.27;100.00;98979.07;2884139;80;21004;-94
2022/11/22 16:02:18;;;;;;;85.40;47.00;;;;;;;4.28;100.00;98976.80;2891800;80;21102;-93
2022/11/22 16:06:28;;;;;;;82.10;51.25;;;;;;;4.33;100.00;98979.94;2871376;80;21090;-92
2022/11/22 16:10:41;;;;;;;83.70;48.83;;;;;;;4.32;100.00;98987.94;2896035;80;21054;-92
2022/11/22 16:14:49;;;;;;;95.67;52.85;;;;;;;4.34;100.00;98990.83;2921744;80;21514;-93
2022/11/22 16:18:52;;;;;;;82.37;49.38;;;;;;;4.28;100.00;98979.42;2979355;78;21084;-93
2022/11/22 16:23:26;;;;;;;74.58;47.25;;;;;;;4.32;100.00;98988.77;2944008;79;21019;-91
2022/11/22 16:27:31;;;;;;;77.42;46.48;;;;;;;4.29;100.00;98985.05;2754325;84;21114;-92
2022/11/22 16:31:33;;;;;;;93.72;54.45;;;;;;;4.34;100.00;98981.61;2768714;84;20992;-91
2022/11/22 16:35:34;;;;;;;79.37;50.20;;;;;;;4.33;100.00;98981.25;2763336;84;21018;-94
2022/11/22 16:39:36;;;;;;;80.22;52.00;;;;;;;4.33;100.00;98978.62;2749229;84;21057;-93
2022/11/22 16:43:38;;;;;;;77.90;48.80;;;;;;;4.33;100.00;98981.25;2752094;85;21030;-91
2022/11/22 16:47:39;;;;;;;83.85;50.10;;;;;;;4.37;100.00;98974.79;2753717;84;21062;-89
2022/11/22 16:51:43;;;;;;;92.25;51.33;;;;;;;4.45;100.00;98975.52;2750677;84;21010;-90
2022/11/22 16:55:45;;;;;;;97.82;53.75;;;;;;;4.50;100.00;98985.67;2746631;85;21030;-90
2022/11/22 16:59:47;;;;;;;81.65;47.60;;;;;;;4.50;100.00;98981.72;2692875;85;33592;-90
2022/11/22 17:03:53;;;;;;;73.55;47.45;;;;;;;4.48;100.00;98987.13;2808449;80;21025;-91
2022/11/22 17:07:54;;;;;;;71.23;44.77;;;;;;;4.45;100.00;98992.63;2844050;81;21019;-89
2022/11/22 17:11:56;;;;;;;93.45;48.48;;;;;;;4.49;100.00;99001.11;2888445;81;21106;-90
2022/11/22 17:15:57;;;;;;;78.17;49.55;;;;;;;4.53;100.00;98997.31;2867337;81;21066;-91
2022/11/22 17:19:59;;;;;;;84.32;48.92;;;;;;;4.53;100.00;98991.55;2852293;81;21578;-90
2022/11/22 17:24:24;;;;;;;73.67;45.08;;;;;;;4.54;100.00;98997.67;2854067;82;21075;-90
2022/11/22 17:28:26;;;;;;;78.95;50.30;;;;;;;4.58;100.00;98992.52;2846220;82;20939;-88
2022/11/22 17:32:41;;;;;;;71.90;44.30;;;;;;;4.60;100.00;98992.38;2845794;81;21450;-89
2022/11/22 17:37:28;;;;;;;73.10;49.48;;;;;;;4.48;100.00;98996.34;2837027;81;21010;-90
2022/11/22 17:45:42;;;;;;;90.77;50.08;;;;;;;4.54;100.00;98998.98;2833113;82;21166;-88
2022/11/22 17:49:44;;;;;;;72.62;48.40;;;;;;;4.58;100.00;99004.37;2848583;81;21644;-91
2022/11/22 17:53:45;;;;;;;67.30;44.33;;;;;;;4.59;100.00;99006.04;2759807;83;21075;-88
2022/11/22 17:57:47;;;;;;;81.00;45.78;;;;;;;4.63;100.00;99014.06;2776822;83;21624;-89
2022/11/22 18:01:49;;;;;;;70.72;43.38;;;;;;;4.71;100.00;99027.45;2765828;83;21122;-88
2022/11/22 18:05:50;;;;;;;66.70;42.53;;;;;;;4.76;100.00;99039.45;2736296;83;21121;-89
2022/11/22 18:09:52;;;;;;;70.72;46.10;;;;;;;4.75;100.00;99044.38;2718320;83;21589;-89
2022/11/22 18:13:53;;;;;;;73.30;41.95;;;;;;;4.72;100.00;99044.12;2767811;83;21054;-87
2022/11/22 18:17:54;;;;;;;89.35;47.70;;;;;;;4.78;100.00;99048.08;2833302;83;21560;-88
2022/11/22 18:21:56;;;;;;;72.65;46.83;;;;;;;4.79;100.00;99058.98;2816136;82;21026;-88
2022/11/22 18:26:03;;;;;;;79.37;52.75;;;;;;;4.80;100.00;99053.57;2829298;82;21561;-88
2022/11/22 18:30:05;;;;;;;83.90;49.98;;;;;;;4.79;100.00;99050.58;2832508;82;21066;-86
2022/11/22 18:34:07;;;;;;;96.12;54.83;;;;;;;4.77;100.00;99051.67;2847663;80;21543;-86
2022/11/22 18:38:09;;;;;;;92.17;49.13;;;;;;;4.73;100.00;99056.33;2880942;80;21066;-86
2022/11/22 18:42:14;;;;;;;77.45;43.10;;;;;;;4.69;100.00;99047.81;2878231;80;21098;-86
2022/11/22 18:46:15;;;;;;;80.30;53.65;;;;;;;4.70;100.00;99052.12;2832623;81;21124;-87
2022/11/22 18:50:17;;;;;;;80.22;49.60;;;;;;;4.68;100.00;99058.00;2824088;83;20990;-88
2022/11/22 18:54:20;;;;;;;74.70;46.73;;;;;;;4.72;100.00;99048.07;2840063;83;21089;-87
2022/11/22 18:58:21;;;;;;;86.05;46.42;;;;;;;4.78;100.00;99051.53;2843010;82;21046;-89
2022/11/22 19:02:26;;;;;;;74.25;43.73;;;;;;;4.93;100.00;99060.06;2849285;81;21073;-89
2022/11/22 19:06:27;;;;;;;66.97;40.20;;;;;;;5.05;100.00;99070.59;2851550;80;21096;-88
2022/11/22 19:10:28;;;;;;;64.03;40.65;;;;;;;5.02;99.78;99076.11;2850911;83;21045;-88
2022/11/22 19:14:34;;;;;;;58.15;40.15;;;;;;;5.05;100.00;99090.36;2846082;83;21058;-88